sensor_id;sensor_type;location;lat;lon;timestamp;P1;durP1;ratioP1;P2;durP2;ratioP2
42158;SDS011;27822;44.430;10.790;2022-07-18T00:01:40;6.05;;;3.30;;
42158;SDS011;27822;44.430;10.790;2022-07-18T00:04:05;5.25;;;3.00;;
42158;SDS011;27822;44.430;10.790;2022-07-18T00:06:31;5.45;;;3.38;;
42158;SDS011;27822;44.430;10.790;2022-07-18T00:08:57;4.32;;;3.05;;
42158;SDS011;27822;44.430;10.790;2022-07-18T00:11:23;8.13;;;3.42;;
42158;SDS011;27822;44.430;10.790;2022-07-18T00:13:49;4.38;;;2.95;;
42158;SDS011;27822;44.430;10.790;2022-07-18T00:16:16;5.80;;;3.15;;
42158;SDS011;27822;44.430;10.790;2022-07-18T00:18:42;6.80;;;3.10;;
42158;SDS011;27822;44.430;10.790;2022-07-18T00:21:08;6.13;;;3.20;;
42158;SDS011;27822;44.430;10.790;2022-07-18T00:23:34;8.50;;;3.60;;
42158;SDS011;27822;44.430;10.790;2022-07-18T00:26:00;5.75;;;3.10;;
42158;SDS011;27822;44.430;10.790;2022-07-18T00:28:26;6.03;;;3.95;;
42158;SDS011;27822;44.430;10.790;2022-07-18T00:30:52;6.35;;;3.25;;
42158;SDS011;27822;44.430;10.790;2022-07-18T00:33:18;8.40;;;3.42;;
42158;SDS011;27822;44.430;10.790;2022-07-18T00:35:43;8.52;;;3.65;;
42158;SDS011;27822;44.430;10.790;2022-07-18T00:38:09;5.57;;;3.22;;
42158;SDS011;27822;44.430;10.790;2022-07-18T00:40:35;5.80;;;3.20;;
42158;SDS011;27822;44.430;10.790;2022-07-18T00:43:01;11.85;;;4.03;;
42158;SDS011;27822;44.430;10.790;2022-07-18T00:45:27;5.03;;;3.40;;
42158;SDS011;27822;44.430;10.790;2022-07-18T00:47:53;6.35;;;3.13;;
42158;SDS011;27822;44.430;10.790;2022-07-18T00:50:20;7.97;;;3.67;;
42158;SDS011;27822;44.430;10.790;2022-07-18T00:52:47;16.75;;;3.95;;
42158;SDS011;27822;44.430;10.790;2022-07-18T00:55:14;6.05;;;3.15;;
42158;SDS011;27822;44.430;10.790;2022-07-18T00:57:40;5.38;;;3.60;;
42158;SDS011;27822;44.430;10.790;2022-07-18T01:00:08;7.70;;;3.22;;
42158;SDS011;27822;44.430;10.790;2022-07-18T01:02:55;3.90;;;3.10;;
42158;SDS011;27822;44.430;10.790;2022-07-18T01:05:21;5.18;;;3.65;;
42158;SDS011;27822;44.430;10.790;2022-07-18T01:07:47;11.02;;;3.50;;
42158;SDS011;27822;44.430;10.790;2022-07-18T01:10:13;9.18;;;3.38;;
42158;SDS011;27822;44.430;10.790;2022-07-18T01:12:39;5.65;;;3.05;;
42158;SDS011;27822;44.430;10.790;2022-07-18T01:15:05;9.65;;;3.60;;
42158;SDS011;27822;44.430;10.790;2022-07-18T01:17:31;7.10;;;3.35;;
42158;SDS011;27822;44.430;10.790;2022-07-18T01:19:57;5.55;;;2.97;;
42158;SDS011;27822;44.430;10.790;2022-07-18T01:22:23;6.28;;;3.13;;
42158;SDS011;27822;44.430;10.790;2022-07-18T01:24:49;9.27;;;4.40;;
42158;SDS011;27822;44.430;10.790;2022-07-18T01:27:16;9.38;;;3.75;;
42158;SDS011;27822;44.430;10.790;2022-07-18T01:29:44;3.95;;;3.08;;
42158;SDS011;27822;44.430;10.790;2022-07-18T01:32:11;7.40;;;3.45;;
42158;SDS011;27822;44.430;10.790;2022-07-18T01:34:38;6.80;;;3.50;;
42158;SDS011;27822;44.430;10.790;2022-07-18T01:37:05;8.05;;;3.38;;
42158;SDS011;27822;44.430;10.790;2022-07-18T01:39:31;4.70;;;3.05;;
42158;SDS011;27822;44.430;10.790;2022-07-18T01:41:58;6.38;;;3.15;;
42158;SDS011;27822;44.430;10.790;2022-07-18T01:44:25;9.23;;;2.90;;
42158;SDS011;27822;44.430;10.790;2022-07-18T01:46:52;5.32;;;2.70;;
42158;SDS011;27822;44.430;10.790;2022-07-18T01:49:19;6.40;;;3.05;;
42158;SDS011;27822;44.430;10.790;2022-07-18T01:51:45;4.03;;;2.90;;
42158;SDS011;27822;44.430;10.790;2022-07-18T01:54:12;5.07;;;2.85;;
42158;SDS011;27822;44.430;10.790;2022-07-18T01:56:38;9.65;;;3.30;;
42158;SDS011;27822;44.430;10.790;2022-07-18T01:59:04;8.20;;;3.08;;
42158;SDS011;27822;44.430;10.790;2022-07-18T02:01:30;4.50;;;2.83;;
42158;SDS011;27822;44.430;10.790;2022-07-18T02:03:56;6.80;;;3.40;;
42158;SDS011;27822;44.430;10.790;2022-07-18T02:06:22;4.00;;;2.70;;
42158;SDS011;27822;44.430;10.790;2022-07-18T02:08:48;10.82;;;2.88;;
42158;SDS011;27822;44.430;10.790;2022-07-18T02:11:13;4.50;;;3.03;;
42158;SDS011;27822;44.430;10.790;2022-07-18T02:13:39;8.13;;;3.28;;
42158;SDS011;27822;44.430;10.790;2022-07-18T02:16:05;7.35;;;3.00;;
42158;SDS011;27822;44.430;10.790;2022-07-18T02:18:32;5.80;;;3.47;;
42158;SDS011;27822;44.430;10.790;2022-07-18T02:20:58;7.93;;;2.97;;
42158;SDS011;27822;44.430;10.790;2022-07-18T02:23:25;7.70;;;2.83;;
42158;SDS011;27822;44.430;10.790;2022-07-18T02:25:51;5.40;;;2.97;;
42158;SDS011;27822;44.430;10.790;2022-07-18T02:28:16;6.82;;;3.00;;
42158;SDS011;27822;44.430;10.790;2022-07-18T02:30:42;7.53;;;3.50;;
42158;SDS011;27822;44.430;10.790;2022-07-18T02:33:08;4.57;;;3.10;;
42158;SDS011;27822;44.430;10.790;2022-07-18T02:35:34;5.38;;;2.80;;
42158;SDS011;27822;44.430;10.790;2022-07-18T02:38:00;4.57;;;3.20;;
42158;SDS011;27822;44.430;10.790;2022-07-18T02:40:26;10.40;;;2.70;;
42158;SDS011;27822;44.430;10.790;2022-07-18T02:42:51;6.20;;;2.88;;
42158;SDS011;27822;44.430;10.790;2022-07-18T02:45:17;4.70;;;3.40;;
42158;SDS011;27822;44.430;10.790;2022-07-18T02:47:43;6.15;;;3.33;;
42158;SDS011;27822;44.430;10.790;2022-07-18T02:50:09;5.80;;;3.15;;
42158;SDS011;27822;44.430;10.790;2022-07-18T02:52:36;5.28;;;3.58;;
42158;SDS011;27822;44.430;10.790;2022-07-18T02:55:02;4.30;;;2.97;;
42158;SDS011;27822;44.430;10.790;2022-07-18T02:57:28;7.68;;;3.80;;
42158;SDS011;27822;44.430;10.790;2022-07-18T02:59:54;3.90;;;3.45;;
42158;SDS011;27822;44.430;10.790;2022-07-18T03:02:20;9.45;;;3.40;;
42158;SDS011;27822;44.430;10.790;2022-07-18T03:04:46;6.47;;;3.47;;
42158;SDS011;27822;44.430;10.790;2022-07-18T03:07:12;5.10;;;3.08;;
42158;SDS011;27822;44.430;10.790;2022-07-18T03:09:37;8.52;;;3.42;;
42158;SDS011;27822;44.430;10.790;2022-07-18T03:12:03;8.68;;;3.40;;
42158;SDS011;27822;44.430;10.790;2022-07-18T03:14:29;5.55;;;3.60;;
42158;SDS011;27822;44.430;10.790;2022-07-18T03:16:55;4.63;;;3.50;;
42158;SDS011;27822;44.430;10.790;2022-07-18T03:19:21;5.70;;;3.40;;
42158;SDS011;27822;44.430;10.790;2022-07-18T03:21:46;6.13;;;3.38;;
42158;SDS011;27822;44.430;10.790;2022-07-18T03:24:12;5.40;;;3.42;;
42158;SDS011;27822;44.430;10.790;2022-07-18T03:26:39;4.38;;;3.22;;
42158;SDS011;27822;44.430;10.790;2022-07-18T03:29:06;4.22;;;3.78;;
42158;SDS011;27822;44.430;10.790;2022-07-18T03:31:31;3.58;;;3.05;;
42158;SDS011;27822;44.430;10.790;2022-07-18T03:33:57;3.95;;;3.03;;
42158;SDS011;27822;44.430;10.790;2022-07-18T03:36:24;5.05;;;3.20;;
42158;SDS011;27822;44.430;10.790;2022-07-18T03:38:49;6.20;;;3.67;;
42158;SDS011;27822;44.430;10.790;2022-07-18T03:41:15;6.85;;;3.35;;
42158;SDS011;27822;44.430;10.790;2022-07-18T03:43:41;6.55;;;3.85;;
42158;SDS011;27822;44.430;10.790;2022-07-18T03:46:07;5.00;;;3.72;;
42158;SDS011;27822;44.430;10.790;2022-07-18T03:48:33;3.60;;;3.22;;
42158;SDS011;27822;44.430;10.790;2022-07-18T03:51:00;6.05;;;4.47;;
42158;SDS011;27822;44.430;10.790;2022-07-18T03:53:26;4.72;;;3.88;;
42158;SDS011;27822;44.430;10.790;2022-07-18T03:55:52;5.65;;;3.55;;
42158;SDS011;27822;44.430;10.790;2022-07-18T03:58:17;6.55;;;3.70;;
42158;SDS011;27822;44.430;10.790;2022-07-18T04:00:43;4.78;;;3.25;;
42158;SDS011;27822;44.430;10.790;2022-07-18T04:03:09;4.93;;;3.35;;
42158;SDS011;27822;44.430;10.790;2022-07-18T04:05:35;6.25;;;3.25;;
42158;SDS011;27822;44.430;10.790;2022-07-18T04:08:01;6.07;;;3.55;;
42158;SDS011;27822;44.430;10.790;2022-07-18T04:10:26;4.18;;;3.60;;
42158;SDS011;27822;44.430;10.790;2022-07-18T04:12:53;7.75;;;4.20;;
42158;SDS011;27822;44.430;10.790;2022-07-18T04:15:20;5.43;;;3.58;;
42158;SDS011;27822;44.430;10.790;2022-07-18T04:17:48;6.32;;;3.58;;
42158;SDS011;27822;44.430;10.790;2022-07-18T04:20:14;4.72;;;3.47;;
42158;SDS011;27822;44.430;10.790;2022-07-18T04:22:52;10.45;;;3.70;;
42158;SDS011;27822;44.430;10.790;2022-07-18T04:25:20;5.53;;;3.22;;
42158;SDS011;27822;44.430;10.790;2022-07-18T04:27:47;4.95;;;4.25;;
42158;SDS011;27822;44.430;10.790;2022-07-18T04:30:14;7.13;;;3.53;;
42158;SDS011;27822;44.430;10.790;2022-07-18T04:32:41;7.63;;;4.18;;
42158;SDS011;27822;44.430;10.790;2022-07-18T04:35:07;4.47;;;3.17;;
42158;SDS011;27822;44.430;10.790;2022-07-18T04:37:34;5.40;;;3.63;;
42158;SDS011;27822;44.430;10.790;2022-07-18T04:40:00;5.53;;;3.70;;
42158;SDS011;27822;44.430;10.790;2022-07-18T04:42:26;5.20;;;3.55;;
42158;SDS011;27822;44.430;10.790;2022-07-18T04:44:52;3.90;;;3.47;;
42158;SDS011;27822;44.430;10.790;2022-07-18T04:47:18;3.95;;;3.00;;
42158;SDS011;27822;44.430;10.790;2022-07-18T04:49:44;4.43;;;3.10;;
42158;SDS011;27822;44.430;10.790;2022-07-18T04:52:10;5.68;;;3.42;;
42158;SDS011;27822;44.430;10.790;2022-07-18T04:54:36;7.88;;;3.00;;
42158;SDS011;27822;44.430;10.790;2022-07-18T04:57:01;6.22;;;3.15;;
42158;SDS011;27822;44.430;10.790;2022-07-18T04:59:27;4.15;;;2.90;;
42158;SDS011;27822;44.430;10.790;2022-07-18T05:01:53;4.72;;;2.83;;
42158;SDS011;27822;44.430;10.790;2022-07-18T05:04:19;3.97;;;2.70;;
42158;SDS011;27822;44.430;10.790;2022-07-18T05:06:44;3.38;;;2.70;;
42158;SDS011;27822;44.430;10.790;2022-07-18T05:09:10;3.28;;;2.63;;
42158;SDS011;27822;44.430;10.790;2022-07-18T05:11:36;4.53;;;2.80;;
42158;SDS011;27822;44.430;10.790;2022-07-18T05:14:01;4.18;;;2.72;;
42158;SDS011;27822;44.430;10.790;2022-07-18T05:16:27;5.68;;;3.08;;
42158;SDS011;27822;44.430;10.790;2022-07-18T05:18:53;4.18;;;2.60;;
42158;SDS011;27822;44.430;10.790;2022-07-18T05:21:19;5.13;;;2.72;;
42158;SDS011;27822;44.430;10.790;2022-07-18T05:23:44;12.57;;;2.60;;
42158;SDS011;27822;44.430;10.790;2022-07-18T05:26:10;3.28;;;2.20;;
42158;SDS011;27822;44.430;10.790;2022-07-18T05:28:37;4.38;;;2.22;;
42158;SDS011;27822;44.430;10.790;2022-07-18T05:31:03;7.45;;;2.70;;
42158;SDS011;27822;44.430;10.790;2022-07-18T05:33:28;5.05;;;2.35;;
42158;SDS011;27822;44.430;10.790;2022-07-18T05:35:54;2.60;;;2.40;;
42158;SDS011;27822;44.430;10.790;2022-07-18T05:38:20;6.63;;;2.53;;
42158;SDS011;27822;44.430;10.790;2022-07-18T05:40:46;3.13;;;2.40;;
42158;SDS011;27822;44.430;10.790;2022-07-18T05:43:12;4.05;;;2.30;;
42158;SDS011;27822;44.430;10.790;2022-07-18T05:45:37;6.82;;;2.88;;
42158;SDS011;27822;44.430;10.790;2022-07-18T05:48:03;3.65;;;2.60;;
42158;SDS011;27822;44.430;10.790;2022-07-18T05:50:30;5.88;;;2.67;;
42158;SDS011;27822;44.430;10.790;2022-07-18T05:52:56;5.18;;;2.95;;
42158;SDS011;27822;44.430;10.790;2022-07-18T05:55:22;4.47;;;2.85;;
42158;SDS011;27822;44.430;10.790;2022-07-18T05:57:48;3.33;;;2.42;;
42158;SDS011;27822;44.430;10.790;2022-07-18T06:00:15;5.20;;;2.97;;
42158;SDS011;27822;44.430;10.790;2022-07-18T06:02:41;8.45;;;2.83;;
42158;SDS011;27822;44.430;10.790;2022-07-18T06:05:07;5.97;;;3.17;;
42158;SDS011;27822;44.430;10.790;2022-07-18T06:07:34;5.57;;;2.75;;
42158;SDS011;27822;44.430;10.790;2022-07-18T06:10:00;4.07;;;2.80;;
42158;SDS011;27822;44.430;10.790;2022-07-18T06:12:29;5.53;;;2.72;;
42158;SDS011;27822;44.430;10.790;2022-07-18T06:14:58;4.60;;;2.80;;
42158;SDS011;27822;44.430;10.790;2022-07-18T06:17:25;4.68;;;3.05;;
42158;SDS011;27822;44.430;10.790;2022-07-18T06:19:52;5.75;;;3.00;;
42158;SDS011;27822;44.430;10.790;2022-07-18T06:22:19;3.75;;;2.95;;
42158;SDS011;27822;44.430;10.790;2022-07-18T06:24:45;5.85;;;2.78;;
42158;SDS011;27822;44.430;10.790;2022-07-18T06:27:11;6.32;;;3.03;;
42158;SDS011;27822;44.430;10.790;2022-07-18T06:29:39;3.63;;;3.33;;
42158;SDS011;27822;44.430;10.790;2022-07-18T06:32:06;4.70;;;2.95;;
42158;SDS011;27822;44.430;10.790;2022-07-18T06:34:32;5.10;;;2.90;;
42158;SDS011;27822;44.430;10.790;2022-07-18T06:36:57;3.33;;;2.90;;
42158;SDS011;27822;44.430;10.790;2022-07-18T06:39:23;5.55;;;3.13;;
42158;SDS011;27822;44.430;10.790;2022-07-18T06:41:49;8.65;;;3.33;;
42158;SDS011;27822;44.430;10.790;2022-07-18T06:44:15;4.40;;;2.83;;
42158;SDS011;27822;44.430;10.790;2022-07-18T06:46:41;8.25;;;2.95;;
42158;SDS011;27822;44.430;10.790;2022-07-18T06:49:07;3.75;;;3.08;;
42158;SDS011;27822;44.430;10.790;2022-07-18T06:51:33;6.28;;;2.60;;
42158;SDS011;27822;44.430;10.790;2022-07-18T06:53:59;7.97;;;3.50;;
42158;SDS011;27822;44.430;10.790;2022-07-18T06:56:25;9.00;;;3.95;;
42158;SDS011;27822;44.430;10.790;2022-07-18T06:58:51;7.38;;;2.97;;
42158;SDS011;27822;44.430;10.790;2022-07-18T07:01:18;4.90;;;3.05;;
42158;SDS011;27822;44.430;10.790;2022-07-18T07:03:46;4.20;;;2.63;;
42158;SDS011;27822;44.430;10.790;2022-07-18T07:06:12;7.07;;;2.83;;
42158;SDS011;27822;44.430;10.790;2022-07-18T07:08:43;5.90;;;3.17;;
42158;SDS011;27822;44.430;10.790;2022-07-18T07:11:16;4.32;;;2.80;;
42158;SDS011;27822;44.430;10.790;2022-07-18T07:13:47;6.43;;;3.10;;
42158;SDS011;27822;44.430;10.790;2022-07-18T07:16:13;3.85;;;2.97;;
42158;SDS011;27822;44.430;10.790;2022-07-18T07:18:38;5.45;;;3.35;;
42158;SDS011;27822;44.430;10.790;2022-07-18T07:21:05;5.20;;;3.00;;
42158;SDS011;27822;44.430;10.790;2022-07-18T07:23:33;5.20;;;2.83;;
42158;SDS011;27822;44.430;10.790;2022-07-18T07:25:59;10.80;;;5.22;;
42158;SDS011;27822;44.430;10.790;2022-07-18T07:28:24;8.20;;;3.97;;
42158;SDS011;27822;44.430;10.790;2022-07-18T07:30:50;4.32;;;2.70;;
42158;SDS011;27822;44.430;10.790;2022-07-18T07:33:16;5.03;;;2.92;;
42158;SDS011;27822;44.430;10.790;2022-07-18T07:35:42;11.60;;;3.08;;
42158;SDS011;27822;44.430;10.790;2022-07-18T07:38:08;6.53;;;2.72;;
42158;SDS011;27822;44.430;10.790;2022-07-18T07:40:35;4.22;;;2.50;;
42158;SDS011;27822;44.430;10.790;2022-07-18T07:43:08;5.85;;;2.67;;
42158;SDS011;27822;44.430;10.790;2022-07-18T08:00:37;2.97;;;2.40;;
42158;SDS011;27822;44.430;10.790;2022-07-18T08:03:04;3.42;;;2.97;;
42158;SDS011;27822;44.430;10.790;2022-07-18T08:05:32;3.50;;;2.42;;
42158;SDS011;27822;44.430;10.790;2022-07-18T08:07:59;5.37;;;2.47;;
42158;SDS011;27822;44.430;10.790;2022-07-18T08:10:27;3.15;;;2.53;;
42158;SDS011;27822;44.430;10.790;2022-07-18T08:12:54;5.70;;;2.80;;
42158;SDS011;27822;44.430;10.790;2022-07-18T08:15:20;3.28;;;2.90;;
42158;SDS011;27822;44.430;10.790;2022-07-18T08:17:46;6.88;;;2.95;;
42158;SDS011;27822;44.430;10.790;2022-07-18T08:20:12;3.60;;;2.60;;
42158;SDS011;27822;44.430;10.790;2022-07-18T08:22:54;5.55;;;2.63;;
42158;SDS011;27822;44.430;10.790;2022-07-18T08:25:21;3.85;;;2.30;;
42158;SDS011;27822;44.430;10.790;2022-07-18T08:27:49;5.43;;;2.92;;
42158;SDS011;27822;44.430;10.790;2022-07-18T08:30:15;5.13;;;2.47;;
42158;SDS011;27822;44.430;10.790;2022-07-18T08:32:42;6.63;;;2.53;;
42158;SDS011;27822;44.430;10.790;2022-07-18T08:35:07;8.23;;;2.90;;
42158;SDS011;27822;44.430;10.790;2022-07-18T08:37:33;9.60;;;2.45;;
42158;SDS011;27822;44.430;10.790;2022-07-18T08:39:59;5.45;;;2.40;;
42158;SDS011;27822;44.430;10.790;2022-07-18T08:42:26;6.63;;;2.35;;
42158;SDS011;27822;44.430;10.790;2022-07-18T08:44:56;3.25;;;2.35;;
42158;SDS011;27822;44.430;10.790;2022-07-18T08:47:22;4.88;;;2.45;;
42158;SDS011;27822;44.430;10.790;2022-07-18T08:49:51;4.05;;;2.75;;
42158;SDS011;27822;44.430;10.790;2022-07-18T08:52:18;3.78;;;2.50;;
42158;SDS011;27822;44.430;10.790;2022-07-18T08:54:45;3.28;;;2.53;;
42158;SDS011;27822;44.430;10.790;2022-07-18T08:57:14;3.67;;;2.90;;
42158;SDS011;27822;44.430;10.790;2022-07-18T08:59:46;5.00;;;2.70;;
42158;SDS011;27822;44.430;10.790;2022-07-18T09:02:12;3.83;;;2.75;;
42158;SDS011;27822;44.430;10.790;2022-07-18T09:04:38;6.05;;;2.60;;
42158;SDS011;27822;44.430;10.790;2022-07-18T09:07:07;4.85;;;2.33;;
42158;SDS011;27822;44.430;10.790;2022-07-18T09:09:37;4.32;;;2.95;;
42158;SDS011;27822;44.430;10.790;2022-07-18T09:14:39;5.78;;;2.35;;
42158;SDS011;27822;44.430;10.790;2022-07-18T09:19:36;3.45;;;2.58;;
42158;SDS011;27822;44.430;10.790;2022-07-18T09:22:38;5.20;;;2.33;;
42158;SDS011;27822;44.430;10.790;2022-07-18T09:27:34;4.53;;;2.60;;
42158;SDS011;27822;44.430;10.790;2022-07-18T09:30:10;9.00;;;2.40;;
42158;SDS011;27822;44.430;10.790;2022-07-18T09:32:36;2.33;;;2.00;;
42158;SDS011;27822;44.430;10.790;2022-07-18T09:35:05;5.22;;;2.13;;
42158;SDS011;27822;44.430;10.790;2022-07-18T09:37:32;3.38;;;2.20;;
42158;SDS011;27822;44.430;10.790;2022-07-18T09:40:20;4.10;;;2.28;;
42158;SDS011;27822;44.430;10.790;2022-07-18T09:42:49;4.57;;;2.63;;
42158;SDS011;27822;44.430;10.790;2022-07-18T09:45:30;5.30;;;2.70;;
42158;SDS011;27822;44.430;10.790;2022-07-18T09:50:31;9.40;;;2.78;;
42158;SDS011;27822;44.430;10.790;2022-07-18T09:53:09;10.10;;;2.80;;
42158;SDS011;27822;44.430;10.790;2022-07-18T09:55:48;4.63;;;2.28;;
42158;SDS011;27822;44.430;10.790;2022-07-18T09:58:15;4.38;;;2.30;;
42158;SDS011;27822;44.430;10.790;2022-07-18T10:00:43;6.75;;;2.55;;
42158;SDS011;27822;44.430;10.790;2022-07-18T10:03:09;2.70;;;2.35;;
42158;SDS011;27822;44.430;10.790;2022-07-18T10:05:36;2.40;;;2.20;;
42158;SDS011;27822;44.430;10.790;2022-07-18T10:08:05;5.07;;;2.55;;
42158;SDS011;27822;44.430;10.790;2022-07-18T10:10:33;7.72;;;3.05;;
42158;SDS011;27822;44.430;10.790;2022-07-18T10:13:00;5.07;;;2.53;;
42158;SDS011;27822;44.430;10.790;2022-07-18T10:15:28;6.13;;;3.00;;
42158;SDS011;27822;44.430;10.790;2022-07-18T10:17:56;5.72;;;2.50;;
42158;SDS011;27822;44.430;10.790;2022-07-18T10:20:31;6.00;;;2.92;;
42158;SDS011;27822;44.430;10.790;2022-07-18T10:28:35;4.00;;;2.50;;
42158;SDS011;27822;44.430;10.790;2022-07-18T10:31:31;6.40;;;2.63;;
42158;SDS011;27822;44.430;10.790;2022-07-18T10:36:36;12.60;;;2.72;;
42158;SDS011;27822;44.430;10.790;2022-07-18T10:39:35;4.47;;;2.50;;
42158;SDS011;27822;44.430;10.790;2022-07-18T10:44:34;5.55;;;2.58;;
42158;SDS011;27822;44.430;10.790;2022-07-18T10:47:06;8.13;;;2.80;;
42158;SDS011;27822;44.430;10.790;2022-07-18T10:57:42;4.80;;;2.85;;
42158;SDS011;27822;44.430;10.790;2022-07-18T11:00:34;4.82;;;2.65;;
42158;SDS011;27822;44.430;10.790;2022-07-18T11:03:04;5.13;;;2.83;;
42158;SDS011;27822;44.430;10.790;2022-07-18T11:05:34;6.03;;;2.75;;
42158;SDS011;27822;44.430;10.790;2022-07-18T11:15:56;5.25;;;2.67;;
42158;SDS011;27822;44.430;10.790;2022-07-18T11:19:17;8.45;;;3.03;;
42158;SDS011;27822;44.430;10.790;2022-07-18T11:21:21;3.92;;;2.50;;
42158;SDS011;27822;44.430;10.790;2022-07-18T11:24:01;7.05;;;2.47;;
42158;SDS011;27822;44.430;10.790;2022-07-18T11:26:29;5.78;;;2.97;;
42158;SDS011;27822;44.430;10.790;2022-07-18T11:28:59;5.20;;;3.10;;
42158;SDS011;27822;44.430;10.790;2022-07-18T11:31:29;6.90;;;2.53;;
42158;SDS011;27822;44.430;10.790;2022-07-18T11:33:58;5.82;;;2.80;;
42158;SDS011;27822;44.430;10.790;2022-07-18T11:36:30;6.32;;;2.78;;
42158;SDS011;27822;44.430;10.790;2022-07-18T11:38:57;6.80;;;2.58;;
42158;SDS011;27822;44.430;10.790;2022-07-18T11:41:25;6.65;;;2.90;;
42158;SDS011;27822;44.430;10.790;2022-07-18T11:43:51;6.47;;;2.83;;
42158;SDS011;27822;44.430;10.790;2022-07-18T11:46:19;6.50;;;2.63;;
42158;SDS011;27822;44.430;10.790;2022-07-18T11:48:48;4.03;;;2.50;;
42158;SDS011;27822;44.430;10.790;2022-07-18T11:51:22;4.18;;;2.40;;
42158;SDS011;27822;44.430;10.790;2022-07-18T11:53:52;5.43;;;2.83;;
42158;SDS011;27822;44.430;10.790;2022-07-18T11:56:19;3.33;;;2.78;;
42158;SDS011;27822;44.430;10.790;2022-07-18T11:58:48;3.08;;;2.38;;
42158;SDS011;27822;44.430;10.790;2022-07-18T12:01:15;5.85;;;2.70;;
42158;SDS011;27822;44.430;10.790;2022-07-18T12:03:42;7.35;;;2.70;;
42158;SDS011;27822;44.430;10.790;2022-07-18T12:06:12;11.50;;;3.00;;
42158;SDS011;27822;44.430;10.790;2022-07-18T12:08:46;6.95;;;2.90;;
42158;SDS011;27822;44.430;10.790;2022-07-18T12:11:29;4.10;;;2.42;;
42158;SDS011;27822;44.430;10.790;2022-07-18T12:14:00;3.95;;;2.53;;
42158;SDS011;27822;44.430;10.790;2022-07-18T12:16:48;3.45;;;2.60;;
42158;SDS011;27822;44.430;10.790;2022-07-18T12:19:21;6.32;;;2.70;;
42158;SDS011;27822;44.430;10.790;2022-07-18T12:22:03;3.85;;;2.70;;
42158;SDS011;27822;44.430;10.790;2022-07-18T12:24:34;4.65;;;2.40;;
42158;SDS011;27822;44.430;10.790;2022-07-18T12:27:23;4.80;;;2.60;;
42158;SDS011;27822;44.430;10.790;2022-07-18T12:30:10;3.20;;;2.50;;
42158;SDS011;27822;44.430;10.790;2022-07-18T12:32:40;6.07;;;2.45;;
42158;SDS011;27822;44.430;10.790;2022-07-18T12:35:30;6.32;;;2.97;;
42158;SDS011;27822;44.430;10.790;2022-07-18T12:38:02;4.65;;;2.85;;
42158;SDS011;27822;44.430;10.790;2022-07-18T12:40:51;6.47;;;2.95;;
42158;SDS011;27822;44.430;10.790;2022-07-18T12:45:51;4.43;;;3.25;;
42158;SDS011;27822;44.430;10.790;2022-07-18T12:48:18;5.25;;;2.67;;
42158;SDS011;27822;44.430;10.790;2022-07-18T12:50:44;5.10;;;2.90;;
42158;SDS011;27822;44.430;10.790;2022-07-18T12:53:11;5.18;;;2.90;;
42158;SDS011;27822;44.430;10.790;2022-07-18T12:55:38;4.38;;;3.05;;
42158;SDS011;27822;44.430;10.790;2022-07-18T12:58:05;8.13;;;3.03;;
42158;SDS011;27822;44.430;10.790;2022-07-18T13:00:31;4.93;;;3.05;;
42158;SDS011;27822;44.430;10.790;2022-07-18T13:02:58;6.22;;;3.22;;
42158;SDS011;27822;44.430;10.790;2022-07-18T13:05:25;5.28;;;3.22;;
42158;SDS011;27822;44.430;10.790;2022-07-18T13:07:52;4.57;;;3.35;;
42158;SDS011;27822;44.430;10.790;2022-07-18T13:10:18;3.92;;;3.03;;
42158;SDS011;27822;44.430;10.790;2022-07-18T13:12:44;4.57;;;3.00;;
42158;SDS011;27822;44.430;10.790;2022-07-18T13:15:10;4.28;;;2.88;;
42158;SDS011;27822;44.430;10.790;2022-07-18T13:20:05;5.10;;;2.90;;
42158;SDS011;27822;44.430;10.790;2022-07-18T13:22:31;8.82;;;3.35;;
42158;SDS011;27822;44.430;10.790;2022-07-18T13:25:11;11.20;;;3.58;;
42158;SDS011;27822;44.430;10.790;2022-07-18T13:27:37;6.75;;;3.90;;
42158;SDS011;27822;44.430;10.790;2022-07-18T13:30:03;4.05;;;3.00;;
42158;SDS011;27822;44.430;10.790;2022-07-18T13:32:35;3.72;;;2.75;;
42158;SDS011;27822;44.430;10.790;2022-07-18T13:35:01;5.75;;;2.97;;
42158;SDS011;27822;44.430;10.790;2022-07-18T13:37:27;4.68;;;3.08;;
42158;SDS011;27822;44.430;10.790;2022-07-18T13:39:53;7.38;;;3.78;;
42158;SDS011;27822;44.430;10.790;2022-07-18T13:42:19;6.50;;;2.95;;
42158;SDS011;27822;44.430;10.790;2022-07-18T13:44:45;6.55;;;2.95;;
42158;SDS011;27822;44.430;10.790;2022-07-18T13:47:11;7.97;;;2.78;;
42158;SDS011;27822;44.430;10.790;2022-07-18T13:49:37;4.85;;;2.95;;
42158;SDS011;27822;44.430;10.790;2022-07-18T13:52:03;8.63;;;3.63;;
42158;SDS011;27822;44.430;10.790;2022-07-18T13:54:30;6.30;;;2.80;;
42158;SDS011;27822;44.430;10.790;2022-07-18T13:56:55;6.07;;;2.80;;
42158;SDS011;27822;44.430;10.790;2022-07-18T13:59:22;7.35;;;3.25;;
42158;SDS011;27822;44.430;10.790;2022-07-18T14:01:48;4.90;;;2.80;;
42158;SDS011;27822;44.430;10.790;2022-07-18T14:04:15;4.18;;;2.70;;
42158;SDS011;27822;44.430;10.790;2022-07-18T14:06:43;6.57;;;3.45;;
42158;SDS011;27822;44.430;10.790;2022-07-18T14:09:10;7.00;;;3.53;;
42158;SDS011;27822;44.430;10.790;2022-07-18T14:11:36;10.23;;;2.83;;
42158;SDS011;27822;44.430;10.790;2022-07-18T14:14:02;4.68;;;2.92;;
42158;SDS011;27822;44.430;10.790;2022-07-18T14:16:29;5.35;;;2.97;;
42158;SDS011;27822;44.430;10.790;2022-07-18T14:18:55;4.68;;;2.95;;
42158;SDS011;27822;44.430;10.790;2022-07-18T14:21:22;6.20;;;2.90;;
42158;SDS011;27822;44.430;10.790;2022-07-18T14:23:48;4.57;;;2.92;;
42158;SDS011;27822;44.430;10.790;2022-07-18T14:26:14;4.40;;;2.67;;
42158;SDS011;27822;44.430;10.790;2022-07-18T14:28:40;3.35;;;2.40;;
42158;SDS011;27822;44.430;10.790;2022-07-18T14:31:06;9.00;;;3.10;;
42158;SDS011;27822;44.430;10.790;2022-07-18T14:33:31;3.50;;;2.58;;
42158;SDS011;27822;44.430;10.790;2022-07-18T14:35:57;2.70;;;2.30;;
42158;SDS011;27822;44.430;10.790;2022-07-18T14:38:23;6.43;;;2.90;;
42158;SDS011;27822;44.430;10.790;2022-07-18T14:40:49;5.78;;;2.92;;
42158;SDS011;27822;44.430;10.790;2022-07-18T14:43:14;6.70;;;2.85;;
42158;SDS011;27822;44.430;10.790;2022-07-18T14:45:41;7.05;;;2.83;;
42158;SDS011;27822;44.430;10.790;2022-07-18T14:48:07;6.90;;;2.88;;
42158;SDS011;27822;44.430;10.790;2022-07-18T14:50:33;6.28;;;3.10;;
42158;SDS011;27822;44.430;10.790;2022-07-18T14:52:58;5.68;;;2.50;;
42158;SDS011;27822;44.430;10.790;2022-07-18T14:55:24;4.70;;;2.53;;
42158;SDS011;27822;44.430;10.790;2022-07-18T14:57:50;7.05;;;2.75;;
42158;SDS011;27822;44.430;10.790;2022-07-18T15:00:16;3.65;;;2.72;;
42158;SDS011;27822;44.430;10.790;2022-07-18T15:02:42;6.05;;;2.78;;
42158;SDS011;27822;44.430;10.790;2022-07-18T15:05:08;5.45;;;2.88;;
42158;SDS011;27822;44.430;10.790;2022-07-18T15:07:34;8.30;;;2.72;;
42158;SDS011;27822;44.430;10.790;2022-07-18T15:10:00;4.72;;;2.90;;
42158;SDS011;27822;44.430;10.790;2022-07-18T15:12:26;5.38;;;2.88;;
42158;SDS011;27822;44.430;10.790;2022-07-18T15:14:53;4.50;;;2.30;;
42158;SDS011;27822;44.430;10.790;2022-07-18T15:17:21;3.03;;;2.72;;
42158;SDS011;27822;44.430;10.790;2022-07-18T15:19:48;3.00;;;2.47;;
42158;SDS011;27822;44.430;10.790;2022-07-18T15:24:43;9.68;;;2.70;;
42158;SDS011;27822;44.430;10.790;2022-07-18T15:27:09;4.20;;;2.53;;
42158;SDS011;27822;44.430;10.790;2022-07-18T15:29:35;4.70;;;2.35;;
42158;SDS011;27822;44.430;10.790;2022-07-18T15:32:01;8.07;;;2.75;;
42158;SDS011;27822;44.430;10.790;2022-07-18T15:34:32;6.15;;;2.55;;
42158;SDS011;27822;44.430;10.790;2022-07-18T15:37:02;5.45;;;2.63;;